Time;durP1;ratioP1;P1;durP2;ratioP2;P2;SDS_P1;SDS_P2;PMS_P1;PMS_P2;Temp;Humidity;BMP_temperature;BMP_pressure;BME280_temperature;BME280_humidity;BME280_pressure;Samples;Min_cycle;Max_cycle;Signal;HPM_P1;HPM_P2
2023/04/13 00:01:02;;;;;;;2.15;0.20;;;7.00;99.90;;;;;;4994893;28;20019;-91
2023/04/13 00:03:31;;;;;;;2.97;0.20;;;7.00;99.90;;;;;;4994551;28;20038;-90
2023/04/13 00:05:57;;;;;;;2.33;0.30;;;6.90;99.90;;;;;;4994592;28;20051;-91
2023/04/13 00:08:23;;;;;;;2.47;0.30;;;6.90;99.90;;;;;;4994159;28;20050;-92
2023/04/13 00:10:49;;;;;;;2.80;0.30;;;6.90;99.90;;;;;;4995800;28;20105;-91
2023/04/13 00:13:15;;;;;;;2.45;0.25;;;6.90;99.90;;;;;;4994484;28;20058;-91
2023/04/13 00:15:42;;;;;;;1.23;0.30;;;6.90;99.90;;;;;;4996925;28;20033;-91
2023/04/13 00:18:09;;;;;;;1.50;0.30;;;6.90;99.90;;;;;;4994611;28;20080;-91
2023/04/13 00:20:35;;;;;;;1.50;0.20;;;6.90;99.90;;;;;;4993707;28;20030;-92
2023/04/13 00:23:00;;;;;;;1.50;0.20;;;6.90;99.90;;;;;;4995731;28;20025;-91
2023/04/13 00:25:26;;;;;;;1.55;0.20;;;6.90;99.90;;;;;;4997201;28;20113;-91
2023/04/13 00:27:52;;;;;;;2.03;0.30;;;6.90;99.90;;;;;;5011583;28;20026;-91
2023/04/13 00:30:18;;;;;;;1.77;0.30;;;6.90;99.90;;;;;;5010069;28;20109;-92
2023/04/13 00:32:44;;;;;;;1.35;0.30;;;6.90;99.90;;;;;;4993814;28;20113;-91
2023/04/13 00:35:11;;;;;;;0.73;0.20;;;6.90;99.90;;;;;;4992216;28;20102;-91
2023/04/13 00:37:37;;;;;;;2.47;0.20;;;6.80;99.90;;;;;;5010193;28;20108;-92
2023/04/13 00:40:05;;;;;;;2.95;0.30;;;6.80;99.90;;;;;;4993958;28;20022;-93
2023/04/13 00:42:30;;;;;;;2.25;0.30;;;6.80;99.90;;;;;;4994131;28;20045;-92
2023/04/13 00:44:56;;;;;;;0.95;0.20;;;6.80;99.90;;;;;;4994402;28;20113;-92
2023/04/13 00:47:31;;;;;;;1.92;0.30;;;6.80;99.90;;;;;;4992600;28;20037;-92
2023/04/13 00:50:00;;;;;;;3.60;0.40;;;6.80;99.90;;;;;;4993681;28;20482;-92
2023/04/13 00:52:27;;;;;;;4.10;0.43;;;6.80;99.90;;;;;;4993633;28;20034;-91
2023/04/13 00:54:55;;;;;;;1.48;0.20;;;6.80;99.90;;;;;;4993977;28;20029;-90
2023/04/13 00:57:22;;;;;;;1.05;0.30;;;6.80;99.90;;;;;;5009710;28;20023;-91
2023/04/13 00:59:48;;;;;;;4.88;0.40;;;6.80;99.90;;;;;;4993316;28;20037;-91
2023/04/13 01:02:15;;;;;;;2.83;0.65;;;6.80;99.90;;;;;;4993371;28;20026;-89
2023/04/13 01:04:41;;;;;;;1.48;0.30;;;6.80;99.90;;;;;;4992485;28;20455;-89
2023/04/13 01:07:26;;;;;;;7.00;1.48;;;6.80;99.90;;;;;;4993519;28;20030;-88
2023/04/13 01:10:17;;;;;;;4.28;0.32;;;6.80;99.90;;;;;;5002436;28;20037;-89
2023/04/13 01:13:06;;;;;;;4.20;0.40;;;6.90;99.90;;;;;;5009954;28;20072;-91
2023/04/13 01:15:37;;;;;;;2.13;0.30;;;6.90;99.90;;;;;;5021364;28;20105;-91
2023/04/13 01:18:07;;;;;;;4.10;0.40;;;6.90;99.90;;;;;;4993091;28;20129;-91
2023/04/13 01:20:36;;;;;;;3.38;0.28;;;7.00;99.90;;;;;;5010181;28;20026;-92
2023/04/13 01:23:08;;;;;;;2.58;0.20;;;7.00;99.90;;;;;;4993418;28;20026;-91
2023/04/13 01:26:05;;;;;;;4.43;0.30;;;7.00;99.90;;;;;;4994555;28;20398;-90
2023/04/13 01:28:33;;;;;;;5.55;0.40;;;7.00;99.90;;;;;;5011563;28;20396;-91
2023/04/13 01:31:04;;;;;;;3.55;0.47;;;7.00;99.90;;;;;;4992339;28;20037;-91
2023/04/13 01:33:32;;;;;;;5.70;0.40;;;7.00;99.90;;;;;;4994381;28;20026;-92
2023/04/13 01:35:59;;;;;;;1.35;0.30;;;7.00;99.90;;;;;;4992563;28;20026;-90
2023/04/13 01:38:25;;;;;;;2.00;0.32;;;7.00;99.90;;;;;;4990637;28;20089;-90
2023/04/13 01:40:51;;;;;;;0.90;0.20;;;7.10;99.90;;;;;;4991696;28;20030;-89
2023/04/13 01:43:18;;;;;;;1.38;0.30;;;7.10;99.90;;;;;;4993567;28;20450;-90
2023/04/13 01:46:00;;;;;;;3.10;0.30;;;7.10;99.90;;;;;;4992123;28;20526;-89
2023/04/13 01:48:38;;;;;;;2.28;0.55;;;7.10;99.90;;;;;;5008631;28;20034;-90
2023/04/13 01:51:15;;;;;;;2.33;1.08;;;7.10;99.90;;;;;;4993623;28;20108;-90
2023/04/13 01:53:43;;;;;;;2.67;0.30;;;7.10;99.90;;;;;;5008488;28;20032;-90
2023/04/13 01:56:11;;;;;;;2.17;0.20;;;7.10;99.90;;;;;;4992708;28;20026;-91
2023/04/13 01:58:39;;;;;;;0.90;0.20;;;7.10;99.90;;;;;;4984675;28;20030;-90
2023/04/13 02:01:06;;;;;;;0.75;0.40;;;7.10;99.90;;;;;;4988365;28;20023;-89
2023/04/13 02:03:33;;;;;;;3.88;0.45;;;7.10;99.90;;;;;;4992452;28;20026;-89
2023/04/13 02:06:00;;;;;;;1.73;0.40;;;7.10;99.90;;;;;;4992115;28;20105;-90
2023/04/13 02:08:25;;;;;;;2.53;0.30;;;7.10;99.90;;;;;;5004113;28;20046;-90
2023/04/13 02:10:51;;;;;;;4.22;1.05;;;7.10;99.90;;;;;;5008696;28;20055;-90
2023/04/13 02:13:17;;;;;;;7.25;0.40;;;7.10;99.90;;;;;;4991811;28;20041;-91
2023/04/13 02:15:43;;;;;;;3.97;0.40;;;7.20;99.90;;;;;;5009048;28;20072;-91
2023/04/13 02:18:10;;;;;;;3.05;0.30;;;7.20;99.90;;;;;;4992146;28;20034;-91
2023/04/13 02:20:42;;;;;;;4.72;0.30;;;7.20;99.90;;;;;;4992225;28;20022;-90
2023/04/13 02:23:09;;;;;;;;;;;7.20;99.90;;;;;;4993084;28;20061;-92
2023/04/13 02:25:35;;;;;;;5.30;0.75;;;7.20;99.90;;;;;;5009223;28;19909;-91
2023/04/13 02:28:00;;;;;;;4.28;0.40;;;7.20;99.90;;;;;;4993031;28;20034;-92
2023/04/13 02:30:27;;;;;;;2.97;0.28;;;7.20;99.90;;;;;;4991938;28;20037;-91
2023/04/13 02:32:53;;;;;;;2.05;0.20;;;7.20;99.90;;;;;;4991937;28;20061;-90
2023/04/13 02:35:19;;;;;;;2.08;0.73;;;7.20;99.90;;;;;;4991630;28;20026;-90
2023/04/13 02:37:45;;;;;;;1.50;0.28;;;7.20;99.90;;;;;;4992053;28;20080;-90
2023/04/13 02:40:11;;;;;;;3.70;0.30;;;7.20;99.90;;;;;;4989739;28;20395;-90
2023/04/13 02:42:38;;;;;;;2.70;0.30;;;7.20;99.90;;;;;;4991979;28;20077;-90
2023/04/13 02:45:06;;;;;;;3.17;0.70;;;7.10;99.90;;;;;;4982279;28;20022;-90
2023/04/13 02:47:32;;;;;;;1.95;0.30;;;7.10;99.90;;;;;;5006896;28;20046;-91
2023/04/13 02:49:59;;;;;;;2.20;0.20;;;7.00;99.90;;;;;;4991526;28;20038;-91
2023/04/13 02:52:24;;;;;;;3.40;0.40;;;6.90;99.90;;;;;;4988439;28;20223;-89
2023/04/13 02:54:53;;;;;;;1.60;0.50;;;6.90;99.90;;;;;;4993383;28;20482;-91
2023/04/13 02:57:19;;;;;;;1.67;0.30;;;6.80;99.90;;;;;;5016273;28;20022;-91
2023/04/13 02:59:45;;;;;;;3.53;0.40;;;6.80;99.90;;;;;;4996213;28;20109;-90
2023/04/13 03:02:12;;;;;;;3.85;0.40;;;6.80;99.90;;;;;;5013020;28;20134;-91
2023/04/13 03:04:37;;;;;;;3.70;0.57;;;6.70;99.90;;;;;;4995279;28;20034;-93
2023/04/13 03:07:03;;;;;;;3.03;0.50;;;6.70;99.90;;;;;;4995961;28;20117;-92
2023/04/13 03:09:30;;;;;;;4.00;0.60;;;6.60;99.90;;;;;;4995699;28;20064;-92
2023/04/13 03:11:55;;;;;;;4.53;0.45;;;6.60;99.90;;;;;;4995684;28;20026;-92
2023/04/13 03:14:21;;;;;;;6.20;0.82;;;6.50;99.90;;;;;;4995097;28;20033;-92
2023/04/13 03:16:47;;;;;;;2.42;0.50;;;6.50;99.90;;;;;;4995911;28;20093;-90
2023/04/13 03:19:15;;;;;;;5.28;0.75;;;6.50;99.90;;;;;;4995416;28;20449;-92
2023/04/13 03:21:41;;;;;;;3.40;0.68;;;6.40;99.90;;;;;;4995952;28;20054;-93
2023/04/13 03:24:07;;;;;;;3.38;0.60;;;6.40;99.90;;;;;;4996330;28;20557;-92
2023/04/13 03:26:33;;;;;;;2.67;0.50;;;6.30;99.90;;;;;;4996442;28;20070;-92
2023/04/13 03:28:58;;;;;;;6.35;1.42;;;6.30;99.90;;;;;;4994739;28;20100;-92
2023/04/13 03:31:25;;;;;;;3.47;0.60;;;6.30;99.90;;;;;;5010671;28;20030;-92
2023/04/13 03:33:50;;;;;;;5.25;0.77;;;6.20;99.90;;;;;;4994552;28;20407;-94
2023/04/13 03:36:16;;;;;;;3.33;0.70;;;6.20;99.90;;;;;;4994846;28;20029;-92
2023/04/13 03:38:41;;;;;;;7.72;0.85;;;6.10;99.90;;;;;;4995430;28;20030;-93
2023/04/13 03:41:07;;;;;;;3.65;0.70;;;6.10;99.90;;;;;;4995514;28;20128;-94
2023/04/13 03:43:33;;;;;;;2.80;0.60;;;6.20;99.90;;;;;;4994314;28;20030;-92
2023/04/13 03:45:58;;;;;;;7.47;0.70;;;6.20;99.90;;;;;;4988757;28;20029;-92
2023/04/13 03:48:24;;;;;;;3.65;0.63;;;6.20;99.90;;;;;;4994913;28;20522;-93
2023/04/13 03:50:49;;;;;;;1.27;0.50;;;6.30;99.90;;;;;;5019499;28;20026;-92
2023/04/13 03:53:15;;;;;;;3.53;0.60;;;6.30;99.90;;;;;;4992400;28;20026;-91
2023/04/13 03:55:40;;;;;;;4.22;0.50;;;6.30;99.90;;;;;;5008954;28;20022;-91
2023/04/13 03:58:06;;;;;;;3.38;0.70;;;6.30;99.90;;;;;;4992312;28;20030;-90
2023/04/13 04:00:31;;;;;;;3.45;0.77;;;6.30;99.90;;;;;;4993157;28;20023;-89
2023/04/13 04:02:57;;;;;;;3.95;0.70;;;6.30;99.90;;;;;;5010896;28;20514;-89
2023/04/13 04:05:23;;;;;;;7.30;0.70;;;6.40;99.90;;;;;;5013331;28;20036;-91
2023/04/13 04:07:48;;;;;;;4.45;0.98;;;6.30;99.90;;;;;;4993947;28;20121;-91
2023/04/13 04:10:16;;;;;;;4.05;0.80;;;6.30;99.90;;;;;;4994197;28;20050;-91
2023/04/13 04:12:42;;;;;;;6.28;0.80;;;6.20;99.90;;;;;;4994347;28;20031;-91
2023/04/13 04:15:08;;;;;;;3.63;1.20;;;6.20;99.90;;;;;;4993743;28;20031;-92
2023/04/13 04:17:33;;;;;;;6.43;1.10;;;6.20;99.90;;;;;;4993452;28;20062;-92
2023/04/13 04:19:59;;;;;;;6.05;1.27;;;6.20;99.90;;;;;;4994374;28;20026;-92
2023/04/13 04:22:28;;;;;;;4.75;1.30;;;6.20;99.90;;;;;;4993962;28;20034;-93
2023/04/13 04:24:57;;;;;;;5.65;1.75;;;6.20;99.90;;;;;;4993762;28;20130;-91
2023/04/13 04:27:25;;;;;;;4.40;1.77;;;6.10;99.90;;;;;;4994027;28;20038;-93
2023/04/13 04:29:51;;;;;;;5.25;2.67;;;6.10;99.90;;;;;;4994585;28;20030;-91
2023/04/13 04:32:17;;;;;;;5.10;2.28;;;6.10;99.90;;;;;;4993593;28;20766;-93
2023/04/13 04:34:43;;;;;;;6.47;2.78;;;6.10;99.90;;;;;;4994820;28;20030;-92
2023/04/13 04:37:12;;;;;;;6.22;3.00;;;6.10;99.90;;;;;;4994127;28;20113;-93
2023/04/13 04:39:43;;;;;;;7.82;3.10;;;6.10;99.90;;;;;;4995852;28;20073;-92
2023/04/13 04:42:09;;;;;;;8.32;3.78;;;6.10;99.90;;;;;;5010233;28;20074;-91
2023/04/13 04:44:36;;;;;;;10.00;4.22;;;6.10;99.90;;;;;;4993222;28;20031;-93
2023/04/13 04:47:03;;;;;;;11.93;5.25;;;6.10;99.90;;;;;;4993877;28;20022;-93
2023/04/13 04:49:29;;;;;;;8.57;4.70;;;6.10;99.90;;;;;;4994168;28;20795;-93
2023/04/13 04:51:56;;;;;;;14.35;5.80;;;6.20;99.90;;;;;;4993146;28;20027;-93
2023/04/13 04:54:22;;;;;;;17.45;5.72;;;6.20;99.90;;;;;;4994735;28;20026;-93
2023/04/13 04:56:49;;;;;;;8.27;4.85;;;6.20;99.90;;;;;;4996313;28;20026;-92
2023/04/13 04:59:16;;;;;;;12.05;4.75;;;6.20;99.90;;;;;;5004472;28;20026;-93
2023/04/13 05:01:42;;;;;;;12.63;5.10;;;6.20;99.90;;;;;;5002277;28;20033;-94
2023/04/13 05:04:08;;;;;;;11.10;4.85;;;6.20;99.90;;;;;;4993189;28;20030;-92
2023/04/13 05:06:34;;;;;;;16.73;6.03;;;6.30;99.90;;;;;;4993054;28;20029;-93
2023/04/13 05:09:00;;;;;;;14.48;6.20;;;6.30;99.90;;;;;;4993476;28;20081;-94
2023/04/13 05:11:27;;;;;;;12.13;5.00;;;6.40;99.90;;;;;;4992194;28;20475;-94
2023/04/13 05:13:57;;;;;;;16.80;5.95;;;6.40;99.90;;;;;;4992848;28;20038;-93
2023/04/13 05:16:23;;;;;;;12.52;6.15;;;6.50;99.90;;;;;;4994724;28;20081;-93
2023/04/13 05:18:49;;;;;;;12.75;4.82;;;6.60;99.90;;;;;;4993240;28;20109;-93
2023/04/13 05:21:16;;;;;;;9.32;4.88;;;6.60;99.90;;;;;;4993669;28;20041;-93
2023/04/13 05:23:42;;;;;;;11.20;5.32;;;6.70;99.90;;;;;;4993572;28;20026;-92
2023/04/13 05:26:10;;;;;;;10.93;5.38;;;6.70;99.90;;;;;;4991510;28;20592;-93
2023/04/13 05:28:35;;;;;;;10.02;4.72;;;6.80;99.90;;;;;;4990590;28;20068;-93
2023/04/13 05:31:02;;;;;;;12.57;3.88;;;6.90;99.90;;;;;;4995247;28;20084;-93
2023/04/13 05:33:28;;;;;;;12.82;4.18;;;7.00;99.90;;;;;;4988269;28;20049;-94
2023/04/13 05:35:53;;;;;;;18.88;4.22;;;7.00;99.90;;;;;;5008884;28;20027;-94
2023/04/13 05:38:19;;;;;;;9.27;4.28;;;7.10;99.90;;;;;;4995341;28;20037;-93
2023/04/13 05:40:44;;;;;;;8.13;3.38;;;7.10;99.90;;;;;;4997381;28;20022;-94
2023/04/13 05:43:11;;;;;;;5.20;2.70;;;7.20;99.90;;;;;;4997404;28;20022;-93
2023/04/13 05:45:37;;;;;;;10.20;3.78;;;7.20;99.90;;;;;;4995007;28;20030;-93
2023/04/13 05:48:03;;;;;;;9.45;3.53;;;7.20;99.90;;;;;;4993130;28;20447;-92
2023/04/13 05:50:29;;;;;;;13.20;4.05;;;7.30;99.90;;;;;;4995578;28;20573;-93
2023/04/13 05:52:56;;;;;;;15.18;4.13;;;7.30;99.90;;;;;;4998818;28;20107;-93
2023/04/13 05:55:22;;;;;;;9.82;4.68;;;7.30;99.90;;;;;;4995307;28;20018;-92
2023/04/13 05:57:48;;;;;;;14.90;4.97;;;7.30;99.90;;;;;;4996754;28;20033;-93
2023/04/13 06:00:15;;;;;;;9.07;4.38;;;7.30;99.90;;;;;;4997098;28;20054;-93
2023/04/13 06:02:42;;;;;;;11.80;5.25;;;7.40;99.90;;;;;;4995451;28;20034;-93
2023/04/13 06:05:08;;;;;;;10.77;4.97;;;7.40;99.90;;;;;;4992931;28;20072;-94
2023/04/13 06:07:34;;;;;;;12.82;5.18;;;7.40;99.90;;;;;;5011379;28;20046;-94
2023/04/13 06:10:00;;;;;;;10.82;5.00;;;7.40;99.90;;;;;;4996819;28;20223;-92
2023/04/13 06:12:26;;;;;;;13.77;6.07;;;7.50;99.90;;;;;;4996258;28;20029;-92
2023/04/13 06:14:52;;;;;;;12.70;5.00;;;7.60;99.90;;;;;;4993856;28;20027;-90
2023/04/13 06:17:17;;;;;;;15.68;5.80;;;7.60;99.90;;;;;;4994522;28;20089;-91
2023/04/13 06:19:43;;;;;;;15.05;6.30;;;7.50;99.90;;;;;;4995411;28;20022;-91
2023/04/13 06:22:09;;;;;;;12.43;5.10;;;7.40;99.90;;;;;;4994030;28;20034;-91
2023/04/13 06:24:34;;;;;;;15.25;4.68;;;7.40;99.90;;;;;;4994666;28;20037;-90
2023/04/13 06:27:00;;;;;;;11.27;4.80;;;7.40;99.90;;;;;;4993580;28;20022;-90
2023/04/13 06:29:26;;;;;;;14.32;5.50;;;7.40;99.90;;;;;;4997051;28;20117;-90
2023/04/13 06:31:51;;;;;;;12.07;5.65;;;7.30;99.90;;;;;;4998808;28;20072;-92
2023/04/13 06:34:17;;;;;;;12.32;5.97;;;7.20;99.90;;;;;;4998384;28;20041;-91
2023/04/13 06:36:43;;;;;;;15.05;5.32;;;7.20;99.90;;;;;;4998838;28;20081;-92
2023/04/13 06:39:09;;;;;;;9.73;4.75;;;7.20;99.90;;;;;;5001806;28;20030;-91
2023/04/13 06:41:36;;;;;;;11.85;4.43;;;7.10;99.90;;;;;;4994931;28;20022;-89
2023/04/13 06:44:03;;;;;;;9.80;4.32;;;7.10;99.90;;;;;;4993811;28;20027;-90
2023/04/13 06:46:28;;;;;;;12.63;4.30;;;7.10;99.90;;;;;;5015166;28;20491;-92
2023/04/13 06:48:54;;;;;;;12.02;4.68;;;7.10;99.90;;;;;;4997619;28;20065;-90
2023/04/13 06:51:20;;;;;;;9.25;3.40;;;7.10;99.90;;;;;;4997945;28;20022;-92
2023/04/13 06:53:45;;;;;;;9.93;3.50;;;7.20;99.90;;;;;;4998264;28;20030;-92
2023/04/13 06:56:11;;;;;;;9.32;2.63;;;7.20;99.90;;;;;;4999314;28;20026;-93
2023/04/13 06:58:37;;;;;;;6.88;2.33;;;7.20;99.90;;;;;;5013969;28;20041;-92
2023/04/13 07:01:03;;;;;;;5.60;2.30;;;7.30;99.90;;;;;;4997571;28;20034;-91
2023/04/13 07:03:28;;;;;;;7.60;2.17;;;7.30;99.90;;;;;;4996640;28;20037;-92
2023/04/13 07:05:54;;;;;;;4.70;2.13;;;7.40;99.90;;;;;;4994892;28;20098;-92
2023/04/13 07:08:20;;;;;;;9.55;2.17;;;7.50;99.90;;;;;;4994949;28;20042;-90
2023/04/13 07:10:46;;;;;;;9.23;2.00;;;7.60;99.90;;;;;;4996275;28;20506;-92
2023/04/13 07:13:11;;;;;;;7.88;2.33;;;7.70;99.90;;;;;;4995594;28;20022;-93
2023/04/13 07:15:37;;;;;;;8.20;2.00;;;7.80;99.90;;;;;;4995980;28;20037;-91
2023/04/13 07:18:03;;;;;;;10.82;2.60;;;7.90;99.90;;;;;;4992946;28;20025;-91
2023/04/13 07:20:29;;;;;;;7.22;2.28;;;7.90;99.90;;;;;;4999061;28;20030;-90
2023/04/13 07:22:54;;;;;;;8.57;2.45;;;7.80;99.90;;;;;;4999711;28;20030;-91
2023/04/13 07:25:20;;;;;;;8.95;2.13;;;7.70;99.90;;;;;;4997004;28;20038;-89
2023/04/13 07:27:47;;;;;;;7.78;2.13;;;7.70;99.90;;;;;;4995412;28;20466;-89
2023/04/13 07:30:13;;;;;;;7.15;2.17;;;7.70;99.90;;;;;;5012660;28;20034;-89
2023/04/13 07:32:39;;;;;;;9.70;2.60;;;7.70;99.90;;;;;;4996492;28;20027;-91
2023/04/13 07:35:05;;;;;;;10.80;3.13;;;7.70;99.90;;;;;;4997058;28;20541;-91
2023/04/13 07:37:31;;;;;;;7.40;2.65;;;7.70;99.90;;;;;;4996290;28;20052;-90
2023/04/13 07:39:57;;;;;;;9.13;3.47;;;7.70;99.90;;;;;;5012079;28;20086;-92
2023/04/13 07:42:23;;;;;;;11.60;3.05;;;7.70;99.90;;;;;;5012699;28;20033;-91
2023/04/13 07:44:48;;;;;;;9.35;4.57;;;7.70;99.90;;;;;;5011582;28;20023;-91
2023/04/13 07:47:15;;;;;;;8.73;4.85;;;7.70;99.90;;;;;;5011019;28;20030;-92
2023/04/13 07:49:41;;;;;;;9.27;4.75;;;7.70;99.90;;;;;;5009153;28;20129;-91
2023/04/13 07:52:06;;;;;;;12.50;4.65;;;7.70;99.90;;;;;;4994140;28;20117;-91
2023/04/13 07:54:33;;;;;;;10.77;3.75;;;7.80;99.90;;;;;;4994352;28;20100;-90
2023/04/13 07:57:01;;;;;;;13.38;4.63;;;7.80;99.90;;;;;;4994724;28;20483;-93
2023/04/13 07:59:28;;;;;;;11.35;3.50;;;7.90;99.90;;;;;;4993954;28;20034;-91
2023/04/13 08:01:53;;;;;;;12.00;3.70;;;8.00;99.90;;;;;;4994454;28;20118;-91
2023/04/13 08:04:20;;;;;;;11.80;2.97;;;8.20;99.90;;;;;;4994423;28;20042;-93
2023/04/13 08:06:47;;;;;;;8.63;2.53;;;8.40;99.90;;;;;;4988349;28;20026;-90
2023/04/13 08:09:13;;;;;;;7.50;2.03;;;8.60;99.90;;;;;;4994088;28;20038;-92
2023/04/13 08:11:41;;;;;;;14.32;2.95;;;8.80;99.90;;;;;;4994421;28;20114;-91
2023/04/13 08:14:08;;;;;;;8.90;2.13;;;8.90;99.90;;;;;;4994546;28;20030;-92
2023/04/13 08:16:34;;;;;;;11.75;1.67;;;8.90;99.90;;;;;;4994874;28;20062;-92
2023/04/13 08:19:00;;;;;;;12.20;1.67;;;9.10;99.90;;;;;;4995635;28;20034;-92
2023/04/13 08:21:27;;;;;;;9.77;1.75;;;9.20;99.90;;;;;;4997689;28;20038;-92
2023/04/13 08:23:53;;;;;;;9.57;1.90;;;9.30;99.90;;;;;;4998111;28;20038;-93
2023/04/13 08:26:20;;;;;;;10.48;1.33;;;9.30;99.90;;;;;;4996067;28;20027;-90
2023/04/13 08:28:49;;;;;;;7.97;1.05;;;9.30;99.90;;;;;;4995779;28;20045;-92
2023/04/13 08:31:15;;;;;;;12.70;1.58;;;9.20;99.90;;;;;;4996311;28;20023;-92
2023/04/13 08:33:42;;;;;;;11.57;1.23;;;9.20;99.90;;;;;;4996706;28;20026;-90
2023/04/13 08:36:08;;;;;;;13.10;1.30;;;9.10;99.90;;;;;;4996924;28;20022;-92
2023/04/13 08:38:33;;;;;;;9.90;1.27;;;9.00;99.90;;;;;;4995900;28;20026;-91
2023/04/13 08:41:01;;;;;;;9.73;0.88;;;9.00;99.90;;;;;;4992540;28;20045;-92
2023/04/13 08:43:27;;;;;;;7.95;0.95;;;8.90;99.90;;;;;;4996513;28;20026;-93
2023/04/13 08:45:53;;;;;;;6.38;0.70;;;9.00;99.90;;;;;;4996770;28;20026;-94
2023/04/13 08:48:21;;;;;;;9.63;1.17;;;9.10;99.90;;;;;;4995929;28;20031;-91
2023/04/13 08:50:51;;;;;;;5.68;0.75;;;9.20;99.90;;;;;;5005836;28;20119;-92
2023/04/13 08:53:17;;;;;;;9.18;0.80;;;9.40;99.90;;;;;;4996081;28;20026;-92
2023/04/13 08:55:46;;;;;;;6.32;0.80;;;9.50;99.90;;;;;;4997555;28;20030;-93
2023/04/13 08:58:15;;;;;;;6.90;0.50;;;9.60;99.90;;;;;;4995967;28;20033;-91
2023/04/13 09:00:42;;;;;;;7.65;0.60;;;9.90;99.90;;;;;;4995492;28;20038;-91
2023/04/13 09:03:12;;;;;;;6.35;0.55;;;10.00;99.90;;;;;;4996362;28;20120;-92
2023/04/13 09:05:40;;;;;;;5.03;0.60;;;10.10;99.90;;;;;;4996381;28;20062;-92
2023/04/13 09:08:06;;;;;;;5.55;0.70;;;10.20;99.90;;;;;;4995233;28;20038;-91
2023/04/13 09:10:33;;;;;;;10.00;2.25;;;10.30;99.90;;;;;;4994300;28;20038;-93
2023/04/13 09:12:59;;;;;;;6.53;0.63;;;10.30;99.90;;;;;;4997592;28;20098;-91
2023/04/13 09:15:25;;;;;;;11.18;0.80;;;10.40;99.90;;;;;;5011644;28;20089;-93
2023/04/13 09:17:52;;;;;;;9.20;0.95;;;10.30;99.90;;;;;;5012053;28;20106;-91
2023/04/13 09:20:22;;;;;;;11.13;1.00;;;10.40;99.90;;;;;;5011286;28;20034;-91
2023/04/13 09:22:49;;;;;;;11.43;1.00;;;10.40;99.90;;;;;;4995311;28;20028;-92
2023/04/13 09:25:28;;;;;;;8.43;0.88;;;10.40;99.90;;;;;;4994675;28;20034;-92
2023/04/13 09:27:55;;;;;;;7.07;0.60;;;10.40;99.90;;;;;;4997077;28;20023;-92
2023/04/13 09:30:28;;;;;;;6.00;0.50;;;10.30;99.90;;;;;;4994656;28;20053;-92
2023/04/13 09:33:05;;;;;;;9.75;0.70;;;10.20;99.90;;;;;;4995303;28;20034;-92
2023/04/13 09:35:31;;;;;;;11.45;0.90;;;10.00;99.90;;;;;;4990006;28;20109;-93
2023/04/13 09:37:58;;;;;;;14.40;0.80;;;10.00;99.90;;;;;;4996247;28;20024;-92
2023/04/13 09:40:26;;;;;;;10.82;0.80;;;10.00;99.90;;;;;;4992255;28;20027;-93
2023/04/13 09:43:06;;;;;;;10.00;0.73;;;10.00;99.90;;;;;;4994209;28;20502;-92
2023/04/13 09:45:40;;;;;;;12.43;1.08;;;9.90;99.90;;;;;;4995015;28;20508;-92
2023/04/13 09:48:20;;;;;;;13.48;1.52;;;9.80;99.90;;;;;;4996746;28;20139;-92
2023/04/13 09:50:57;;;;;;;9.88;0.80;;;9.90;99.90;;;;;;4994993;28;20050;-93
2023/04/13 09:53:22;;;;;;;9.73;1.05;;;10.00;99.90;;;;;;4994820;28;20029;-94
2023/04/13 09:55:58;;;;;;;11.68;1.10;;;10.10;99.90;;;;;;4994723;28;20030;-90
2023/04/13 09:58:24;;;;;;;13.07;1.35;;;10.40;99.90;;;;;;4995929;28;20402;-92
2023/04/13 10:00:51;;;;;;;10.40;0.90;;;10.40;99.90;;;;;;4993372;28;20050;-93
2023/04/13 10:03:21;;;;;;;8.70;0.73;;;10.50;99.90;;;;;;4993878;28;20037;-93
2023/04/13 10:05:47;;;;;;;10.82;1.05;;;10.40;99.90;;;;;;4994050;28;20023;-92
2023/04/13 10:08:13;;;;;;;7.30;0.90;;;10.40;99.90;;;;;;4995104;28;20050;-92
2023/04/13 10:10:39;;;;;;;5.30;0.60;;;10.40;99.90;;;;;;4992438;28;20045;-93
2023/04/13 10:13:16;;;;;;;15.27;1.20;;;10.40;99.90;;;;;;5014775;28;20473;-92
2023/04/13 10:16:32;;;;;;;12.27;1.00;;;10.60;99.90;;;;;;4995863;28;20479;-92
2023/04/13 10:19:02;;;;;;;10.60;1.40;;;10.70;99.90;;;;;;4973613;28;20034;-92
2023/04/13 10:21:34;;;;;;;14.27;1.23;;;10.70;99.90;;;;;;5008130;28;20034;-92
2023/04/13 10:24:02;;;;;;;8.57;1.05;;;10.70;99.90;;;;;;4994824;28;20552;-90
2023/04/13 10:26:30;;;;;;;5.95;0.70;;;10.40;99.90;;;;;;4994806;28;20078;-92
2023/04/13 10:28:55;;;;;;;10.30;0.60;;;10.00;99.90;;;;;;4994898;28;20040;-91
2023/04/13 10:31:21;;;;;;;5.57;0.45;;;9.80;99.90;;;;;;4992070;28;20086;-92
2023/04/13 10:33:54;;;;;;;4.43;0.40;;;9.90;99.90;;;;;;4993467;28;20085;-91
2023/04/13 10:36:20;;;;;;;;;;;10.10;99.90;;;;;;4996078;28;20038;-91
2023/04/13 10:38:46;;;;;;;10.40;0.60;;;10.30;99.90;;;;;;4991279;28;19914;-91
2023/04/13 10:41:25;;;;;;;8.48;0.70;;;10.60;99.90;;;;;;4995163;28;20086;-91
2023/04/13 10:44:05;;;;;;;12.88;1.05;;;10.80;99.90;;;;;;4996056;28;20022;-92
2023/04/13 10:46:33;;;;;;;9.00;0.88;;;10.90;99.90;;;;;;4993952;28;20026;-89
2023/04/13 10:48:59;;;;;;;9.63;0.98;;;11.00;99.90;;;;;;4995669;28;20042;-92
2023/04/13 10:51:26;;;;;;;9.70;0.52;;;11.00;99.90;;;;;;4995813;28;20061;-91
2023/04/13 10:54:01;;;;;;;8.07;0.70;;;10.90;99.90;;;;;;4995046;28;20041;-91
2023/04/13 10:56:27;;;;;;;12.40;1.58;;;10.70;99.90;;;;;;4995312;28;20045;-92
2023/04/13 10:58:53;;;;;;;4.88;0.47;;;10.80;99.90;;;;;;4994572;28;20026;-91
2023/04/13 11:01:19;;;;;;;10.70;1.30;;;10.90;99.90;;;;;;4994507;28;20033;-91
2023/04/13 11:03:46;;;;;;;9.43;1.45;;;11.10;99.90;;;;;;4995538;28;20030;-92
2023/04/13 11:06:11;;;;;;;8.98;0.70;;;11.30;99.90;;;;;;4994587;28;20026;-91
2023/04/13 11:08:38;;;;;;;13.05;0.70;;;11.40;99.90;;;;;;4993941;28;20052;-91
2023/04/13 11:11:04;;;;;;;6.80;0.70;;;11.60;99.90;;;;;;4994721;28;20027;-92
2023/04/13 11:13:31;;;;;;;13.52;1.20;;;11.80;99.90;;;;;;4994630;28;20041;-92
2023/04/13 11:16:04;;;;;;;11.57;1.25;;;11.80;99.90;;;;;;4997730;28;20049;-92
2023/04/13 11:18:30;;;;;;;8.43;0.80;;;12.10;99.90;;;;;;4998048;28;20034;-91
2023/04/13 11:20:56;;;;;;;8.15;0.70;;;12.10;99.90;;;;;;5024512;28;20022;-90
2023/04/13 11:23:22;;;;;;;7.45;0.60;;;12.00;99.90;;;;;;4998251;28;20019;-92
2023/04/13 11:25:53;;;;;;;6.35;0.88;;;11.90;99.90;;;;;;4997698;28;20030;-92
2023/04/13 11:28:21;;;;;;;9.15;0.50;;;11.90;99.90;;;;;;4996544;28;20466;-91
2023/04/13 11:30:52;;;;;;;7.32;0.63;;;11.80;99.90;;;;;;4997015;28;20019;-90
2023/04/13 11:33:26;;;;;;;12.52;0.90;;;11.80;99.90;;;;;;4996008;28;20030;-91
2023/04/13 11:35:57;;;;;;;8.07;0.65;;;11.80;99.90;;;;;;4991762;28;20393;-91
2023/04/13 11:38:23;;;;;;;7.10;0.43;;;11.80;99.90;;;;;;4997066;28;20029;-91
2023/04/13 11:40:50;;;;;;;8.02;0.60;;;11.80;99.90;;;;;;4997071;28;20079;-93
2023/04/13 11:43:17;;;;;;;8.88;0.60;;;11.80;99.90;;;;;;4996136;28;20027;-91
2023/04/13 11:45:43;;;;;;;4.50;0.50;;;11.70;99.90;;;;;;4998048;28;20474;-91
2023/04/13 11:48:09;;;;;;;4.85;0.57;;;11.70;99.90;;;;;;4997569;28;20054;-92
2023/04/13 11:50:36;;;;;;;4.57;0.40;;;11.70;99.90;;;;;;4998554;28;20026;-92
2023/04/13 11:53:02;;;;;;;5.43;0.40;;;11.70;99.90;;;;;;4997383;28;20022;-92
2023/04/13 11:55:29;;;;;;;8.50;0.70;;;11.80;99.90;;;;;;4997172;28;20036;-91
2023/04/13 11:57:55;;;;;;;7.10;0.73;;;11.90;99.90;;;;;;4997439;28;20026;-91
2023/04/13 12:00:25;;;;;;;8.45;1.25;;;12.00;99.90;;;;;;4997213;28;20117;-92
2023/04/13 12:02:53;;;;;;;6.93;0.77;;;12.00;99.90;;;;;;4997061;28;20027;-92
2023/04/13 12:05:23;;;;;;;10.80;0.70;;;12.10;99.90;;;;;;4997354;28;20113;-92
2023/04/13 12:07:52;;;;;;;5.57;0.47;;;12.00;99.90;;;;;;4991923;28;20050;-92
2023/04/13 12:10:30;;;;;;;7.63;0.60;;;12.10;99.90;;;;;;4999329;28;20036;-91
2023/04/13 12:13:05;;;;;;;9.63;0.50;;;12.00;99.90;;;;;;4998182;28;20022;-92
2023/04/13 12:15:33;;;;;;;8.23;0.65;;;12.10;99.90;;;;;;4998057;28;20053;-92
2023/04/13 12:18:01;;;;;;;11.65;0.60;;;12.30;99.90;;;;;;4997488;28;20018;-92
2023/04/13 12:20:38;;;;;;;7.88;0.60;;;12.30;99.90;;;;;;4996366;28;20033;-92
2023/04/13 12:23:15;;;;;;;8.60;0.45;;;12.40;99.90;;;;;;4996101;28;20038;-91
2023/04/13 12:25:41;;;;;;;5.97;1.13;;;12.50;99.90;;;;;;4998556;28;20172;-91
2023/04/13 12:28:06;;;;;;;5.28;0.80;;;12.50;99.90;;;;;;4997727;28;20085;-91
2023/04/13 12:30:32;;;;;;;6.47;0.50;;;12.40;99.90;;;;;;4996549;28;20442;-93
2023/04/13 12:32:57;;;;;;;8.45;0.50;;;12.40;99.90;;;;;;4996499;28;20426;-92
2023/04/13 12:35:23;;;;;;;10.50;0.73;;;12.40;99.90;;;;;;4997002;28;20029;-91
2023/04/13 12:37:49;;;;;;;9.32;1.13;;;12.40;99.90;;;;;;4993953;28;20022;-92
2023/04/13 12:40:17;;;;;;;5.25;0.52;;;12.40;99.90;;;;;;4994241;28;20027;-92
2023/04/13 12:42:43;;;;;;;3.90;0.43;;;12.40;99.90;;;;;;4996592;28;20035;-92
2023/04/13 12:45:09;;;;;;;8.02;0.60;;;12.40;99.90;;;;;;4993397;28;20023;-90
2023/04/13 12:47:35;;;;;;;7.47;0.47;;;12.60;99.90;;;;;;4997677;28;20034;-91
2023/04/13 12:50:03;;;;;;;3.53;0.38;;;12.70;99.90;;;;;;4994436;28;20038;-91
2023/04/13 12:52:31;;;;;;;5.57;0.43;;;12.80;99.90;;;;;;4991648;28;20026;-92
2023/04/13 12:55:00;;;;;;;5.70;0.73;;;12.80;99.90;;;;;;4996683;28;20022;-91